sensor_id;sensor_type;location;lat;lon;timestamp;pressure;altitude;pressure_sealevel;temperature;humidity
22104;BME280;11218;48.886;9.426;2023-04-09T00:02:21;98673.22;;;7.81;77.88
22104;BME280;11218;48.886;9.426;2023-04-09T00:04:50;98673.66;;;7.78;78.88
22104;BME280;11218;48.886;9.426;2023-04-09T00:07:19;98676.75;;;7.75;77.82
22104;BME280;11218;48.886;9.426;2023-04-09T00:09:47;98669.97;;;7.73;78.83
22104;BME280;11218;48.886;9.426;2023-04-09T00:12:15;98674.31;;;7.67;78.80
22104;BME280;11218;48.886;9.426;2023-04-09T00:14:47;98664.03;;;7.64;80.01
22104;BME280;11218;48.886;9.426;2023-04-09T00:17:18;98666.28;;;7.67;79.93
22104;BME280;11218;48.886;9.426;2023-04-09T00:19:49;98662.19;;;7.65;79.45
22104;BME280;11218;48.886;9.426;2023-04-09T00:22:19;98671.88;;;7.66;79.62
22104;BME280;11218;48.886;9.426;2023-04-09T00:24:49;98665.69;;;7.65;79.89
22104;BME280;11218;48.886;9.426;2023-04-09T00:27:20;98659.72;;;7.63;79.99
22104;BME280;11218;48.886;9.426;2023-04-09T00:29:52;98665.91;;;7.64;80.34
22104;BME280;11218;48.886;9.426;2023-04-09T00:32:23;98665.69;;;7.65;79.61
22104;BME280;11218;48.886;9.426;2023-04-09T00:34:54;98656.81;;;7.65;79.42
22104;BME280;11218;48.886;9.426;2023-04-09T00:37:24;98654.16;;;7.65;79.55
22104;BME280;11218;48.886;9.426;2023-04-09T00:39:54;98658.47;;;7.66;80.22
22104;BME280;11218;48.886;9.426;2023-04-09T00:42:30;98657.66;;;7.65;79.61
22104;BME280;11218;48.886;9.426;2023-04-09T00:45:02;98663.00;;;7.65;79.09
22104;BME280;11218;48.886;9.426;2023-04-09T00:47:32;98664.03;;;7.64;79.38
22104;BME280;11218;48.886;9.426;2023-04-09T00:50:02;98669.78;;;7.68;79.85
22104;BME280;11218;48.886;9.426;2023-04-09T00:52:32;98663.00;;;7.65;78.89
22104;BME280;11218;48.886;9.426;2023-04-09T00:55:04;98666.13;;;7.62;79.75
22104;BME280;11218;48.886;9.426;2023-04-09T00:57:35;98672.50;;;7.61;79.48
22104;BME280;11218;48.886;9.426;2023-04-09T01:00:09;98669.69;;;7.49;80.71
22104;BME280;11218;48.886;9.426;2023-04-09T01:02:40;98669.72;;;7.43;80.63
22104;BME280;11218;48.886;9.426;2023-04-09T01:05:10;98671.22;;;7.39;81.12
22104;BME280;11218;48.886;9.426;2023-04-09T01:07:51;98665.44;;;7.42;81.74
22104;BME280;11218;48.886;9.426;2023-04-09T01:10:29;98668.69;;;7.44;80.83
22104;BME280;11218;48.886;9.426;2023-04-09T01:13:06;98669.06;;;7.47;81.38
22104;BME280;11218;48.886;9.426;2023-04-09T01:15:43;98668.66;;;7.50;81.34
22104;BME280;11218;48.886;9.426;2023-04-09T01:18:21;98666.78;;;7.51;80.27
22104;BME280;11218;48.886;9.426;2023-04-09T01:20:58;98667.63;;;7.51;80.25
22104;BME280;11218;48.886;9.426;2023-04-09T01:23:36;98664.53;;;7.48;80.75
22104;BME280;11218;48.886;9.426;2023-04-09T01:26:18;98663.72;;;7.47;80.30
22104;BME280;11218;48.886;9.426;2023-04-09T01:28:52;98667.00;;;7.49;81.22
22104;BME280;11218;48.886;9.426;2023-04-09T01:31:26;98663.28;;;7.50;80.81
22104;BME280;11218;48.886;9.426;2023-04-09T01:33:55;98660.63;;;7.50;80.82
22104;BME280;11218;48.886;9.426;2023-04-09T01:36:24;98667.63;;;7.51;80.57
22104;BME280;11218;48.886;9.426;2023-04-09T01:38:54;98664.72;;;7.53;80.95
22104;BME280;11218;48.886;9.426;2023-04-09T01:41:24;98664.72;;;7.53;80.78
22104;BME280;11218;48.886;9.426;2023-04-09T01:43:54;98661.44;;;7.51;80.62
22104;BME280;11218;48.886;9.426;2023-04-09T01:46:24;98666.78;;;7.51;79.96
22104;BME280;11218;48.886;9.426;2023-04-09T01:48:53;98660.88;;;7.42;80.65
22104;BME280;11218;48.886;9.426;2023-04-09T01:51:22;98660.06;;;7.42;79.97
22104;BME280;11218;48.886;9.426;2023-04-09T01:53:56;98669.50;;;7.44;80.68
22104;BME280;11218;48.886;9.426;2023-04-09T01:56:26;98664.97;;;7.45;80.46
22104;BME280;11218;48.886;9.426;2023-04-09T01:58:59;98669.91;;;7.48;79.80
22104;BME280;11218;48.886;9.426;2023-04-09T02:01:34;98658.22;;;7.42;80.65
22104;BME280;11218;48.886;9.426;2023-04-09T02:04:09;98664.16;;;7.44;80.35
22104;BME280;11218;48.886;9.426;2023-04-09T02:06:45;98668.03;;;7.48;81.13
22104;BME280;11218;48.886;9.426;2023-04-09T02:09:19;98669.91;;;7.48;80.65
22104;BME280;11218;48.886;9.426;2023-04-09T02:11:50;98669.06;;;7.47;81.18
22104;BME280;11218;48.886;9.426;2023-04-09T02:14:24;98671.16;;;7.45;81.20
22104;BME280;11218;48.886;9.426;2023-04-09T02:16:55;98666.25;;;7.42;80.88
22104;BME280;11218;48.886;9.426;2023-04-09T02:19:37;98661.34;;;7.33;80.99
22104;BME280;11218;48.886;9.426;2023-04-09T02:22:08;98663.41;;;7.31;81.81
22104;BME280;11218;48.886;9.426;2023-04-09T02:24:39;98660.97;;;7.29;81.67
22104;BME280;11218;48.886;9.426;2023-04-09T02:27:09;98660.78;;;7.24;82.23
22104;BME280;11218;48.886;9.426;2023-04-09T02:29:41;98661.63;;;7.18;81.70
22104;BME280;11218;48.886;9.426;2023-04-09T02:32:12;98652.16;;;7.15;81.65
22104;BME280;11218;48.886;9.426;2023-04-09T02:34:42;98657.13;;;7.12;81.65
22104;BME280;11218;48.886;9.426;2023-04-09T02:37:13;98657.72;;;7.14;82.29
22104;BME280;11218;48.886;9.426;2023-04-09T02:39:43;98656.28;;;7.18;81.68
22104;BME280;11218;48.886;9.426;2023-04-09T02:42:13;98654.81;;;7.22;81.79
22104;BME280;11218;48.886;9.426;2023-04-09T02:44:45;98659.56;;;7.20;81.36
22104;BME280;11218;48.886;9.426;2023-04-09T02:47:16;98651.72;;;7.18;82.37
22104;BME280;11218;48.886;9.426;2023-04-09T02:49:46;98653.16;;;7.21;82.40
22104;BME280;11218;48.886;9.426;2023-04-09T02:52:15;98652.97;;;7.16;81.97
22104;BME280;11218;48.886;9.426;2023-04-09T02:54:47;98659.16;;;7.16;81.81
22104;BME280;11218;48.886;9.426;2023-04-09T02:57:17;98660.59;;;7.19;82.06
22104;BME280;11218;48.886;9.426;2023-04-09T02:59:47;98657.69;;;7.20;82.13
22104;BME280;11218;48.886;9.426;2023-04-09T03:02:17;98659.94;;;7.23;82.24
22104;BME280;11218;48.886;9.426;2023-04-09T03:04:48;98650.28;;;7.22;82.17
22104;BME280;11218;48.886;9.426;2023-04-09T03:07:18;98649.84;;;7.25;82.48
22104;BME280;11218;48.886;9.426;2023-04-09T03:09:48;98657.28;;;7.23;81.47
22104;BME280;11218;48.886;9.426;2023-04-09T03:12:18;98651.09;;;7.23;82.81
22104;BME280;11218;48.886;9.426;2023-04-09T03:14:49;98636.50;;;7.19;82.15
22104;BME280;11218;48.886;9.426;2023-04-09T03:17:19;98637.53;;;7.18;81.93
22104;BME280;11218;48.886;9.426;2023-04-09T03:19:49;98643.69;;;7.18;82.39
22104;BME280;11218;48.886;9.426;2023-04-09T03:22:19;98640.41;;;7.16;82.98
22104;BME280;11218;48.886;9.426;2023-04-09T03:24:47;98643.09;;;7.16;82.43
22104;BME280;11218;48.886;9.426;2023-04-09T03:27:16;98641.25;;;7.17;82.09
22104;BME280;11218;48.886;9.426;2023-04-09T03:29:44;98644.53;;;7.19;82.29
22104;BME280;11218;48.886;9.426;2023-04-09T03:32:14;98640.19;;;7.18;82.83
22104;BME280;11218;48.886;9.426;2023-04-09T03:34:46;98646.16;;;7.20;82.43
22104;BME280;11218;48.886;9.426;2023-04-09T03:37:15;98640.00;;;7.19;82.19
22104;BME280;11218;48.886;9.426;2023-04-09T03:39:46;98638.56;;;7.17;81.98
22104;BME280;11218;48.886;9.426;2023-04-09T03:42:18;98643.28;;;7.21;82.16
22104;BME280;11218;48.886;9.426;2023-04-09T03:44:48;98651.31;;;7.21;82.11
22104;BME280;11218;48.886;9.426;2023-04-09T03:47:20;98645.94;;;7.21;82.03
22104;BME280;11218;48.886;9.426;2023-04-09T03:49:50;98637.13;;;7.14;82.08
22104;BME280;11218;48.886;9.426;2023-04-09T03:52:22;98643.53;;;7.07;82.02
22104;BME280;11218;48.886;9.426;2023-04-09T03:54:53;98639.84;;;7.08;82.74
22104;BME280;11218;48.886;9.426;2023-04-09T03:57:23;98632.88;;;7.00;82.68
22104;BME280;11218;48.886;9.426;2023-04-09T03:59:52;98637.81;;;6.97;83.38
22104;BME280;11218;48.886;9.426;2023-04-09T04:02:25;98644.00;;;6.97;83.39
22104;BME280;11218;48.886;9.426;2023-04-09T04:04:56;98638.44;;;6.99;82.49
22104;BME280;11218;48.886;9.426;2023-04-09T04:07:24;98638.84;;;6.96;83.62
22104;BME280;11218;48.886;9.426;2023-04-09T04:09:52;98635.13;;;6.97;82.37
22104;BME280;11218;48.886;9.426;2023-04-09T04:12:21;98646.03;;;7.02;82.12
22104;BME280;11218;48.886;9.426;2023-04-09T04:14:51;98641.47;;;7.09;82.41
22104;BME280;11218;48.886;9.426;2023-04-09T04:17:19;98639.84;;;7.01;82.68
22104;BME280;11218;48.886;9.426;2023-04-09T04:19:48;98638.84;;;6.96;83.06
22104;BME280;11218;48.886;9.426;2023-04-09T04:22:17;98639.28;;;6.86;83.50
22104;BME280;11218;48.886;9.426;2023-04-09T04:24:45;98647.53;;;6.84;83.37
22104;BME280;11218;48.886;9.426;2023-04-09T04:27:13;98647.75;;;6.83;83.33
22104;BME280;11218;48.886;9.426;2023-04-09T04:29:41;98653.91;;;6.83;83.82
22104;BME280;11218;48.886;9.426;2023-04-09T04:32:09;98659.47;;;6.88;82.95
22104;BME280;11218;48.886;9.426;2023-04-09T04:34:37;98653.69;;;6.91;83.51
22104;BME280;11218;48.886;9.426;2023-04-09T04:37:07;98644.63;;;6.92;82.70
22104;BME280;11218;48.886;9.426;2023-04-09T04:39:35;98654.69;;;6.97;83.18
22104;BME280;11218;48.886;9.426;2023-04-09T04:42:03;98664.16;;;7.00;82.45
22104;BME280;11218;48.886;9.426;2023-04-09T04:44:31;98659.63;;;7.00;82.62
22104;BME280;11218;48.886;9.426;2023-04-09T04:46:59;98659.63;;;7.00;82.19
22104;BME280;11218;48.886;9.426;2023-04-09T04:49:29;98657.38;;;6.97;82.14
22104;BME280;11218;48.886;9.426;2023-04-09T04:52:00;98661.69;;;6.98;82.81
22104;BME280;11218;48.886;9.426;2023-04-09T04:54:33;98658.41;;;6.96;82.91
22104;BME280;11218;48.886;9.426;2023-04-09T04:57:04;98663.13;;;7.01;82.32
22104;BME280;11218;48.886;9.426;2023-04-09T04:59:36;98662.50;;;6.99;82.03
22104;BME280;11218;48.886;9.426;2023-04-09T05:02:07;98664.78;;;6.95;83.11
22104;BME280;11218;48.886;9.426;2023-04-09T05:04:38;98671.56;;;6.98;82.37
22104;BME280;11218;48.886;9.426;2023-04-09T05:07:10;98677.75;;;6.98;83.51
22104;BME280;11218;48.886;9.426;2023-04-09T05:09:44;98663.16;;;6.94;83.12
22104;BME280;11218;48.886;9.426;2023-04-09T05:12:16;98669.72;;;6.98;82.62
22104;BME280;11218;48.886;9.426;2023-04-09T05:14:47;98677.53;;;7.00;82.22
22104;BME280;11218;48.886;9.426;2023-04-09T05:17:20;98658.81;;;7.00;82.66
22104;BME280;11218;48.886;9.426;2023-04-09T05:19:53;98669.69;;;7.05;82.45
22104;BME280;11218;48.886;9.426;2023-04-09T05:22:25;98676.09;;;7.04;81.50
22104;BME280;11218;48.886;9.426;2023-04-09T05:24:56;98676.09;;;7.04;83.18
22104;BME280;11218;48.886;9.426;2023-04-09T05:27:26;98671.56;;;7.04;83.19
22104;BME280;11218;48.886;9.426;2023-04-09T05:29:58;98677.09;;;7.09;82.83
22104;BME280;11218;48.886;9.426;2023-04-09T05:32:30;98673.19;;;7.12;83.18
22104;BME280;11218;48.886;9.426;2023-04-09T05:35:00;98675.63;;;7.13;82.84
22104;BME280;11218;48.886;9.426;2023-04-09T05:37:30;98671.53;;;7.11;82.25
22104;BME280;11218;48.886;9.426;2023-04-09T05:40:01;98676.28;;;7.09;82.65
22104;BME280;11218;48.886;9.426;2023-04-09T05:42:29;98674.63;;;7.08;83.72
22104;BME280;11218;48.886;9.426;2023-04-09T05:44:58;98679.78;;;7.09;83.21
22104;BME280;11218;48.886;9.426;2023-04-09T05:47:26;98681.22;;;7.12;83.32
22104;BME280;11218;48.886;9.426;2023-04-09T05:49:55;98680.34;;;7.18;82.37
22104;BME280;11218;48.886;9.426;2023-04-09T05:52:23;98676.84;;;7.24;82.80
22104;BME280;11218;48.886;9.426;2023-04-09T05:54:51;98680.91;;;7.33;83.05
22104;BME280;11218;48.886;9.426;2023-04-09T05:57:20;98682.53;;;7.41;82.33
22104;BME280;11218;48.886;9.426;2023-04-09T05:59:48;98684.13;;;7.48;82.08
22104;BME280;11218;48.886;9.426;2023-04-09T06:02:16;98688.59;;;7.61;81.07
22104;BME280;11218;48.886;9.426;2023-04-09T06:04:45;98683.22;;;7.61;80.89
22104;BME280;11218;48.886;9.426;2023-04-09T06:07:17;98683.44;;;7.59;81.09
22104;BME280;11218;48.886;9.426;2023-04-09T06:09:45;98681.16;;;7.63;79.76
22104;BME280;11218;48.886;9.426;2023-04-09T06:12:14;98680.50;;;7.68;79.63
22104;BME280;11218;48.886;9.426;2023-04-09T06:14:49;98683.16;;;7.74;79.55
22104;BME280;11218;48.886;9.426;2023-04-09T06:17:21;98681.25;;;7.81;80.24
22104;BME280;11218;48.886;9.426;2023-04-09T06:19:53;98681.44;;;7.86;79.73
22104;BME280;11218;48.886;9.426;2023-04-09T06:22:24;98680.56;;;7.93;79.18
22104;BME280;11218;48.886;9.426;2023-04-09T06:24:53;98683.19;;;7.99;79.36
22104;BME280;11218;48.886;9.426;2023-04-09T06:27:25;98679.44;;;8.07;79.59
22104;BME280;11218;48.886;9.426;2023-04-09T06:29:57;98678.13;;;8.16;79.60
22104;BME280;11218;48.886;9.426;2023-04-09T06:32:29;98677.78;;;8.31;78.51
22104;BME280;11218;48.886;9.426;2023-04-09T06:35:10;98676.03;;;8.43;78.91
22104;BME280;11218;48.886;9.426;2023-04-09T06:37:40;98672.81;;;8.59;78.24
22104;BME280;11218;48.886;9.426;2023-04-09T06:40:11;98669.69;;;8.80;77.73
22104;BME280;11218;48.886;9.426;2023-04-09T06:42:42;98667.00;;;8.99;76.94
22104;BME280;11218;48.886;9.426;2023-04-09T06:45:14;98668.56;;;9.25;75.47
22104;BME280;11218;48.886;9.426;2023-04-09T06:47:44;98672.72;;;9.39;74.64
22104;BME280;11218;48.886;9.426;2023-04-09T06:50:15;98672.69;;;9.57;74.05
22104;BME280;11218;48.886;9.426;2023-04-09T06:52:45;98675.06;;;9.77;72.16
22104;BME280;11218;48.886;9.426;2023-04-09T06:55:16;98677.81;;;9.88;71.84
22104;BME280;11218;48.886;9.426;2023-04-09T06:57:47;98675.78;;;10.14;69.78
22104;BME280;11218;48.886;9.426;2023-04-09T07:00:20;98684.25;;;10.29;70.13
22104;BME280;11218;48.886;9.426;2023-04-09T07:02:51;98675.84;;;10.37;69.39
22104;BME280;11218;48.886;9.426;2023-04-09T07:05:23;98682.03;;;10.61;68.26
22104;BME280;11218;48.886;9.426;2023-04-09T07:07:55;98687.75;;;10.76;67.91
22104;BME280;11218;48.886;9.426;2023-04-09T07:10:27;98693.72;;;10.90;66.84
22104;BME280;11218;48.886;9.426;2023-04-09T07:12:55;98697.13;;;10.97;66.04
22104;BME280;11218;48.886;9.426;2023-04-09T07:15:24;98694.59;;;11.19;64.19
22104;BME280;11218;48.886;9.426;2023-04-09T07:17:52;98701.28;;;11.28;62.90
22104;BME280;11218;48.886;9.426;2023-04-09T07:20:20;98701.59;;;11.32;61.75
22104;BME280;11218;48.886;9.426;2023-04-09T07:22:48;98706.03;;;11.49;62.27
22104;BME280;11218;48.886;9.426;2023-04-09T07:25:16;98708.34;;;11.58;62.07
22104;BME280;11218;48.886;9.426;2023-04-09T07:27:44;98709.84;;;11.65;61.78
22104;BME280;11218;48.886;9.426;2023-04-09T07:30:13;98708.19;;;11.64;61.83
22104;BME280;11218;48.886;9.426;2023-04-09T07:32:42;98705.75;;;11.63;60.43
22104;BME280;11218;48.886;9.426;2023-04-09T07:35:10;98701.75;;;11.65;60.50
22104;BME280;11218;48.886;9.426;2023-04-09T07:37:39;98703.00;;;11.74;61.09
22104;BME280;11218;48.886;9.426;2023-04-09T07:40:07;98700.53;;;11.84;61.59
22104;BME280;11218;48.886;9.426;2023-04-09T07:42:36;98699.53;;;11.91;60.82
22104;BME280;11218;48.886;9.426;2023-04-09T07:45:05;98705.28;;;11.94;60.19
22104;BME280;11218;48.886;9.426;2023-04-09T07:47:34;98703.00;;;12.03;58.31
22104;BME280;11218;48.886;9.426;2023-04-09T07:50:04;98706.19;;;12.00;57.30
22104;BME280;11218;48.886;9.426;2023-04-09T07:52:32;98704.34;;;12.17;57.42
22104;BME280;11218;48.886;9.426;2023-04-09T07:55:00;98707.31;;;11.87;57.51
22104;BME280;11218;48.886;9.426;2023-04-09T07:57:30;98705.94;;;12.01;57.11
22104;BME280;11218;48.886;9.426;2023-04-09T07:59:58;98708.81;;;12.11;58.06
22104;BME280;11218;48.886;9.426;2023-04-09T08:02:27;98704.69;;;12.37;58.33
22104;BME280;11218;48.886;9.426;2023-04-09T08:04:56;98708.22;;;12.55;57.81
22104;BME280;11218;48.886;9.426;2023-04-09T08:07:26;98710.63;;;12.73;56.10
22104;BME280;11218;48.886;9.426;2023-04-09T08:09:54;98709.81;;;12.72;55.27
22104;BME280;11218;48.886;9.426;2023-04-09T08:12:22;98711.44;;;12.73;55.22
22104;BME280;11218;48.886;9.426;2023-04-09T08:14:50;98709.00;;;12.72;53.97
22104;BME280;11218;48.886;9.426;2023-04-09T08:17:18;98718.31;;;12.81;54.98
22104;BME280;11218;48.886;9.426;2023-04-09T08:19:46;98711.34;;;12.85;54.36
22104;BME280;11218;48.886;9.426;2023-04-09T08:22:15;98716.75;;;13.02;54.66
22104;BME280;11218;48.886;9.426;2023-04-09T08:24:50;98707.97;;;13.11;53.93
22104;BME280;11218;48.886;9.426;2023-04-09T08:27:18;98713.69;;;13.15;53.96
22104;BME280;11218;48.886;9.426;2023-04-09T08:29:49;98712.41;;;13.18;52.66
22104;BME280;11218;48.886;9.426;2023-04-09T08:32:17;98716.81;;;13.24;51.59
22104;BME280;11218;48.886;9.426;2023-04-09T08:34:45;98720.16;;;13.14;51.48
22104;BME280;11218;48.886;9.426;2023-04-09T08:37:13;98724.75;;;13.13;52.62
22104;BME280;11218;48.886;9.426;2023-04-09T08:39:43;98717.22;;;13.15;51.81
22104;BME280;11218;48.886;9.426;2023-04-09T08:42:13;98728.19;;;13.26;52.67
22104;BME280;11218;48.886;9.426;2023-04-09T08:44:42;98725.06;;;13.34;49.80
22104;BME280;11218;48.886;9.426;2023-04-09T08:47:10;98724.97;;;13.51;50.77
22104;BME280;11218;48.886;9.426;2023-04-09T08:49:38;98721.88;;;13.64;49.55
22104;BME280;11218;48.886;9.426;2023-04-09T08:52:07;98723.28;;;13.66;49.90
22104;BME280;11218;48.886;9.426;2023-04-09T08:54:50;98725.28;;;13.54;48.76
22104;BME280;11218;48.886;9.426;2023-04-09T08:57:52;98721.19;;;13.73;49.53
22104;BME280;11218;48.886;9.426;2023-04-09T09:00:49;98726.91;;;13.77;47.34
22104;BME280;11218;48.886;9.426;2023-04-09T09:04:14;98731.31;;;13.83;47.83
22104;BME280;11218;48.886;9.426;2023-04-09T09:07:10;98733.81;;;13.90;47.67
22104;BME280;11218;48.886;9.426;2023-04-09T09:10:13;98729.41;;;14.05;48.21
22104;BME280;11218;48.886;9.426;2023-04-09T09:12:43;98727.25;;;14.07;48.31
22104;BME280;11218;48.886;9.426;2023-04-09T09:15:38;98727.06;;;14.19;48.12
22104;BME280;11218;48.886;9.426;2023-04-09T09:18:07;98733.09;;;14.26;47.28
22104;BME280;11218;48.886;9.426;2023-04-09T09:20:49;98734.03;;;14.10;47.32
22104;BME280;11218;48.886;9.426;2023-04-09T09:23:41;98737.41;;;13.95;46.91
22104;BME280;11218;48.886;9.426;2023-04-09T09:27:10;98724.53;;;14.07;47.75
22104;BME280;11218;48.886;9.426;2023-04-09T09:30:40;98727.09;;;13.70;47.92
22104;BME280;11218;48.886;9.426;2023-04-09T09:33:15;98728.56;;;13.56;49.00
22104;BME280;11218;48.886;9.426;2023-04-09T09:35:57;98726.34;;;13.53;47.94
22104;BME280;11218;48.886;9.426;2023-04-09T09:38:54;98729.38;;;13.57;46.05
22104;BME280;11218;48.886;9.426;2023-04-09T09:41:45;98732.75;;;13.91;46.08
22104;BME280;11218;48.886;9.426;2023-04-09T09:48:09;98729.16;;;13.85;46.69
22104;BME280;11218;48.886;9.426;2023-04-09T09:50:52;98720.91;;;13.97;47.54
22104;BME280;11218;48.886;9.426;2023-04-09T09:53:29;98738.41;;;14.16;46.99
22104;BME280;11218;48.886;9.426;2023-04-09T09:56:23;98736.88;;;14.25;47.01
22104;BME280;11218;48.886;9.426;2023-04-09T09:59:20;98730.03;;;13.91;48.22
22104;BME280;11218;48.886;9.426;2023-04-09T10:01:57;98735.44;;;14.18;47.56
22104;BME280;11218;48.886;9.426;2023-04-09T10:04:35;98729.09;;;14.34;47.62
22104;BME280;11218;48.886;9.426;2023-04-09T10:07:08;98716.59;;;14.55;47.59
22104;BME280;11218;48.886;9.426;2023-04-09T10:09:55;98719.19;;;14.76;46.61
22104;BME280;11218;48.886;9.426;2023-04-09T10:13:31;98716.00;;;14.85;45.64
22104;BME280;11218;48.886;9.426;2023-04-09T10:16:37;98708.66;;;15.27;44.24
22104;BME280;11218;48.886;9.426;2023-04-09T10:19:40;98709.84;;;15.52;42.94
22104;BME280;11218;48.886;9.426;2023-04-09T10:22:39;98706.41;;;15.71;43.17
22104;BME280;11218;48.886;9.426;2023-04-09T10:25:48;98718.97;;;15.93;42.41
22104;BME280;11218;48.886;9.426;2023-04-09T10:28:36;98714.75;;;15.55;42.50
22104;BME280;11218;48.886;9.426;2023-04-09T10:31:08;98714.94;;;15.38;42.80
22104;BME280;11218;48.886;9.426;2023-04-09T10:33:44;98713.50;;;15.20;43.13
22104;BME280;11218;48.886;9.426;2023-04-09T10:36:39;98709.09;;;14.67;43.55
22104;BME280;11218;48.886;9.426;2023-04-09T10:39:52;98716.59;;;14.28;45.38
22104;BME280;11218;48.886;9.426;2023-04-09T10:43:41;98717.97;;;14.30;44.10
22104;BME280;11218;48.886;9.426;2023-04-09T10:47:06;98704.16;;;14.32;42.56
22104;BME280;11218;48.886;9.426;2023-04-09T10:50:23;98698.69;;;14.54;44.72
22104;BME280;11218;48.886;9.426;2023-04-09T10:53:34;98709.88;;;14.62;41.83
22104;BME280;11218;48.886;9.426;2023-04-09T10:56:13;98712.75;;;14.51;42.78
22104;BME280;11218;48.886;9.426;2023-04-09T10:59:05;98712.81;;;14.56;42.21
22104;BME280;11218;48.886;9.426;2023-04-09T11:01:51;98702.22;;;14.54;43.84
22104;BME280;11218;48.886;9.426;2023-04-09T11:04:38;98695.19;;;14.53;41.60
22104;BME280;11218;48.886;9.426;2023-04-09T11:07:18;98686.41;;;14.78;42.88
22104;BME280;11218;48.886;9.426;2023-04-09T11:10:01;98691.66;;;14.53;43.39
22104;BME280;11218;48.886;9.426;2023-04-09T11:12:33;98699.22;;;14.51;43.47
22104;BME280;11218;48.886;9.426;2023-04-09T11:15:19;98696.19;;;14.79;44.05
22104;BME280;11218;48.886;9.426;2023-04-09T11:17:55;98701.22;;;15.07;41.70
22104;BME280;11218;48.886;9.426;2023-04-09T11:20:31;98680.69;;;15.22;41.54
22104;BME280;11218;48.886;9.426;2023-04-09T11:23:09;98680.41;;;15.23;42.34
22104;BME280;11218;48.886;9.426;2023-04-09T11:25:52;98691.63;;;14.90;41.44
22104;BME280;11218;48.886;9.426;2023-04-09T11:28:25;98676.00;;;15.07;42.01
22104;BME280;11218;48.886;9.426;2023-04-09T11:31:04;98673.88;;;15.14;42.54
22104;BME280;11218;48.886;9.426;2023-04-09T11:33:44;98681.34;;;14.97;42.07
22104;BME280;11218;48.886;9.426;2023-04-09T11:36:17;98676.22;;;15.00;41.43
22104;BME280;11218;48.886;9.426;2023-04-09T11:38:47;98681.00;;;14.78;41.27
22104;BME280;11218;48.886;9.426;2023-04-09T11:41:50;98686.81;;;14.60;42.69
22104;BME280;11218;48.886;9.426;2023-04-09T11:44:21;98689.91;;;14.09;41.99
22104;BME280;11218;48.886;9.426;2023-04-09T11:46:50;98686.63;;;14.07;43.01
22104;BME280;11218;48.886;9.426;2023-04-09T11:49:20;98687.66;;;14.01;43.50
22104;BME280;11218;48.886;9.426;2023-04-09T11:51:56;98675.56;;;14.09;42.88
22104;BME280;11218;48.886;9.426;2023-04-09T11:54:30;98684.56;;;14.20;43.52
22104;BME280;11218;48.886;9.426;2023-04-09T11:57:00;98690.16;;;14.40;44.24
22104;BME280;11218;48.886;9.426;2023-04-09T11:59:30;98679.69;;;14.49;42.85
22104;BME280;11218;48.886;9.426;2023-04-09T12:01:59;98685.97;;;14.54;42.46
22104;BME280;11218;48.886;9.426;2023-04-09T12:04:27;98673.72;;;14.46;41.38
22104;BME280;11218;48.886;9.426;2023-04-09T12:06:55;98676.75;;;14.23;40.42
22104;BME280;11218;48.886;9.426;2023-04-09T12:09:24;98675.09;;;14.22;42.11
22104;BME280;11218;48.886;9.426;2023-04-09T12:11:52;98668.41;;;14.62;42.02
22104;BME280;11218;48.886;9.426;2023-04-09T12:14:24;98665.03;;;14.82;41.32
22104;BME280;11218;48.886;9.426;2023-04-09T12:16:52;98670.44;;;14.82;42.72
22104;BME280;11218;48.886;9.426;2023-04-09T12:19:24;98652.75;;;15.21;42.34
22104;BME280;11218;48.886;9.426;2023-04-09T12:21:54;98658.50;;;15.35;38.44
22104;BME280;11218;48.886;9.426;2023-04-09T12:24:24;98655.91;;;15.70;38.83
22104;BME280;11218;48.886;9.426;2023-04-09T12:26:53;98650.53;;;15.91;38.24
22104;BME280;11218;48.886;9.426;2023-04-09T12:29:27;98651.94;;;16.29;38.22
22104;BME280;11218;48.886;9.426;2023-04-09T12:31:59;98653.25;;;16.62;37.30
22104;BME280;11218;48.886;9.426;2023-04-09T12:34:28;98656.78;;;16.93;36.60
22104;BME280;11218;48.886;9.426;2023-04-09T12:37:00;98649.97;;;16.95;35.79
22104;BME280;11218;48.886;9.426;2023-04-09T12:39:32;98641.66;;;17.31;36.12
22104;BME280;11218;48.886;9.426;2023-04-09T12:42:04;98642.72;;;17.35;35.26
22104;BME280;11218;48.886;9.426;2023-04-09T12:44:40;98643.97;;;17.63;36.13
22104;BME280;11218;48.886;9.426;2023-04-09T12:47:13;98642.16;;;17.92;35.14
22104;BME280;11218;48.886;9.426;2023-04-09T12:49:43;98632.72;;;18.19;34.86
22104;BME280;11218;48.886;9.426;2023-04-09T12:52:12;98630.72;;;18.29;34.30
22104;BME280;11218;48.886;9.426;2023-04-09T12:54:40;98627.25;;;18.19;35.35
22104;BME280;11218;48.886;9.426;2023-04-09T12:57:08;98636.50;;;18.23;35.30
22104;BME280;11218;48.886;9.426;2023-04-09T12:59:38;98630.47;;;18.26;34.07
22104;BME280;11218;48.886;9.426;2023-04-09T13:02:06;98627.56;;;17.78;34.98
22104;BME280;11218;48.886;9.426;2023-04-09T13:04:34;98618.84;;;17.81;34.16
22104;BME280;11218;48.886;9.426;2023-04-09T13:07:03;98630.84;;;17.75;35.49
22104;BME280;11218;48.886;9.426;2023-04-09T13:09:31;98627.41;;;17.54;35.65
22104;BME280;11218;48.886;9.426;2023-04-09T13:11:59;98626.41;;;17.35;35.48
22104;BME280;11218;48.886;9.426;2023-04-09T13:14:27;98622.94;;;17.19;35.39
22104;BME280;11218;48.886;9.426;2023-04-09T13:16:57;98616.84;;;17.42;36.19
22104;BME280;11218;48.886;9.426;2023-04-09T13:19:25;98618.94;;;17.01;36.55
22104;BME280;11218;48.886;9.426;2023-04-09T13:21:53;98619.81;;;16.61;36.09
22104;BME280;11218;48.886;9.426;2023-04-09T13:24:22;98614.94;;;16.43;37.48
22104;BME280;11218;48.886;9.426;2023-04-09T13:26:50;98610.84;;;16.76;37.47
22104;BME280;11218;48.886;9.426;2023-04-09T13:29:18;98611.13;;;16.69;37.46
22104;BME280;11218;48.886;9.426;2023-04-09T13:31:47;98618.50;;;16.33;36.16
22104;BME280;11218;48.886;9.426;2023-04-09T13:34:17;98614.97;;;15.97;37.60
22104;BME280;11218;48.886;9.426;2023-04-09T13:36:45;98610.06;;;15.89;37.23
22104;BME280;11218;48.886;9.426;2023-04-09T13:39:13;98617.38;;;15.73;38.23
22104;BME280;11218;48.886;9.426;2023-04-09T13:41:41;98602.41;;;15.61;38.38
22104;BME280;11218;48.886;9.426;2023-04-09T13:44:09;98597.00;;;15.66;38.46
22104;BME280;11218;48.886;9.426;2023-04-09T13:46:37;98601.03;;;15.43;38.93